Forrest, Illinois
Current Conditions -  °F | °C
As of 4:55 PM on Tuesday 21 Oct 2014 (Local Time) from KPNT Reporting Station
NA  
Wind Chill: 54°   Ceiling: NA
Heat Index: 54°   Visibility: 10mi
Dew Point: 39°   Wind: 7mph
Humidity: 59%   Direction: 30°NNE
Pressure: 30.19"   Gusts: NA
Location:  40.75°N, 88.41°W
Report Text: KPNT 212155Z AUTO 03006KT 10SM 12/04 A3019 RMK AO2 T01200041
Loading
Personal Weather Stations






























Interactive Weather Map
Tropical Storm Tracking
New forecast layout! Learn more

10-Day Weather Forecast

Advertisements
Track Severe Weather on mobile